sensor_id;sensor_type;location;lat;lon;timestamp;temperature;humidity
28071;DHT22;15383;48.408;9.968;2023-04-25T00:02:03;20.40;73.20
28071;DHT22;15383;48.408;9.968;2023-04-25T00:04:29;20.40;73.20
28071;DHT22;15383;48.408;9.968;2023-04-25T00:06:55;20.40;73.20
28071;DHT22;15383;48.408;9.968;2023-04-25T00:09:21;20.30;73.20
28071;DHT22;15383;48.408;9.968;2023-04-25T00:11:47;20.40;73.20
28071;DHT22;15383;48.408;9.968;2023-04-25T00:14:13;20.40;73.20
28071;DHT22;15383;48.408;9.968;2023-04-25T00:16:38;20.30;73.20
28071;DHT22;15383;48.408;9.968;2023-04-25T00:19:04;20.30;73.20
28071;DHT22;15383;48.408;9.968;2023-04-25T00:21:30;20.30;73.20
28071;DHT22;15383;48.408;9.968;2023-04-25T00:23:56;20.30;73.20
28071;DHT22;15383;48.408;9.968;2023-04-25T00:26:22;20.30;73.20
28071;DHT22;15383;48.408;9.968;2023-04-25T00:28:48;20.30;73.20
28071;DHT22;15383;48.408;9.968;2023-04-25T00:31:14;20.30;73.20
28071;DHT22;15383;48.408;9.968;2023-04-25T00:33:39;20.30;73.20
28071;DHT22;15383;48.408;9.968;2023-04-25T00:36:06;20.30;73.20
28071;DHT22;15383;48.408;9.968;2023-04-25T00:38:32;20.30;73.20
28071;DHT22;15383;48.408;9.968;2023-04-25T00:40:57;20.30;73.20
28071;DHT22;15383;48.408;9.968;2023-04-25T00:43:25;20.30;74.00
28071;DHT22;15383;48.408;9.968;2023-04-25T00:45:52;20.30;73.30
28071;DHT22;15383;48.408;9.968;2023-04-25T00:48:18;20.30;73.20
28071;DHT22;15383;48.408;9.968;2023-04-25T00:50:53;20.30;73.20
28071;DHT22;15383;48.408;9.968;2023-04-25T00:53:23;20.30;73.30
28071;DHT22;15383;48.408;9.968;2023-04-25T00:55:50;20.20;73.20
28071;DHT22;15383;48.408;9.968;2023-04-25T00:58:17;20.30;73.30
28071;DHT22;15383;48.408;9.968;2023-04-25T01:00:45;20.20;73.30
28071;DHT22;15383;48.408;9.968;2023-04-25T01:03:11;20.20;73.30
28071;DHT22;15383;48.408;9.968;2023-04-25T01:05:37;20.20;73.30
28071;DHT22;15383;48.408;9.968;2023-04-25T01:08:02;20.20;73.30
28071;DHT22;15383;48.408;9.968;2023-04-25T01:10:28;20.20;73.30
28071;DHT22;15383;48.408;9.968;2023-04-25T01:12:54;20.20;73.30
28071;DHT22;15383;48.408;9.968;2023-04-25T01:15:20;20.20;73.30
28071;DHT22;15383;48.408;9.968;2023-04-25T01:17:45;20.20;73.40
28071;DHT22;15383;48.408;9.968;2023-04-25T01:20:12;20.20;73.40
28071;DHT22;15383;48.408;9.968;2023-04-25T01:22:39;20.20;73.40
28071;DHT22;15383;48.408;9.968;2023-04-25T01:25:05;20.20;73.40
28071;DHT22;15383;48.408;9.968;2023-04-25T01:27:32;20.20;73.40
28071;DHT22;15383;48.408;9.968;2023-04-25T01:29:57;20.20;73.40
28071;DHT22;15383;48.408;9.968;2023-04-25T01:32:23;20.20;73.40
28071;DHT22;15383;48.408;9.968;2023-04-25T01:34:49;20.20;73.40
28071;DHT22;15383;48.408;9.968;2023-04-25T01:37:16;20.20;73.40
28071;DHT22;15383;48.408;9.968;2023-04-25T01:39:41;20.20;73.40
28071;DHT22;15383;48.408;9.968;2023-04-25T01:42:07;20.20;73.40
28071;DHT22;15383;48.408;9.968;2023-04-25T01:44:33;20.20;73.50
28071;DHT22;15383;48.408;9.968;2023-04-25T01:46:58;20.20;73.50
28071;DHT22;15383;48.408;9.968;2023-04-25T01:49:24;20.20;73.50
28071;DHT22;15383;48.408;9.968;2023-04-25T01:51:50;20.20;73.50
28071;DHT22;15383;48.408;9.968;2023-04-25T01:54:15;20.20;73.60
28071;DHT22;15383;48.408;9.968;2023-04-25T01:56:42;20.20;73.50
28071;DHT22;15383;48.408;9.968;2023-04-25T01:59:07;20.20;73.50
28071;DHT22;15383;48.408;9.968;2023-04-25T02:01:33;20.10;73.50
28071;DHT22;15383;48.408;9.968;2023-04-25T02:03:59;20.10;73.50
28071;DHT22;15383;48.408;9.968;2023-04-25T02:06:25;20.10;73.50
28071;DHT22;15383;48.408;9.968;2023-04-25T02:08:50;20.10;73.50
28071;DHT22;15383;48.408;9.968;2023-04-25T02:11:16;20.10;73.50
28071;DHT22;15383;48.408;9.968;2023-04-25T02:13:41;20.10;73.50
28071;DHT22;15383;48.408;9.968;2023-04-25T02:16:07;20.10;73.50
28071;DHT22;15383;48.408;9.968;2023-04-25T02:18:32;20.10;73.50
28071;DHT22;15383;48.408;9.968;2023-04-25T02:20:59;20.10;73.50
28071;DHT22;15383;48.408;9.968;2023-04-25T02:23:26;20.10;73.50
28071;DHT22;15383;48.408;9.968;2023-04-25T02:25:52;20.10;73.50
28071;DHT22;15383;48.408;9.968;2023-04-25T02:28:18;20.10;73.50
28071;DHT22;15383;48.408;9.968;2023-04-25T02:30:43;20.10;73.60
28071;DHT22;15383;48.408;9.968;2023-04-25T02:33:09;20.10;73.60
28071;DHT22;15383;48.408;9.968;2023-04-25T02:35:34;20.10;73.60
28071;DHT22;15383;48.408;9.968;2023-04-25T02:38:00;20.10;73.60
28071;DHT22;15383;48.408;9.968;2023-04-25T02:40:26;20.10;73.60
28071;DHT22;15383;48.408;9.968;2023-04-25T02:42:51;20.10;74.30
28071;DHT22;15383;48.408;9.968;2023-04-25T02:45:17;20.10;73.60
28071;DHT22;15383;48.408;9.968;2023-04-25T02:47:42;20.00;73.50
28071;DHT22;15383;48.408;9.968;2023-04-25T02:50:08;20.10;73.60
28071;DHT22;15383;48.408;9.968;2023-04-25T02:52:34;20.10;74.30
28071;DHT22;15383;48.408;9.968;2023-04-25T02:54:59;20.10;73.60
28071;DHT22;15383;48.408;9.968;2023-04-25T02:57:25;20.10;73.60
28071;DHT22;15383;48.408;9.968;2023-04-25T02:59:50;20.00;73.50
28071;DHT22;15383;48.408;9.968;2023-04-25T03:02:16;20.00;73.60
28071;DHT22;15383;48.408;9.968;2023-04-25T03:04:41;20.00;73.60
28071;DHT22;15383;48.408;9.968;2023-04-25T03:07:07;20.00;73.60
28071;DHT22;15383;48.408;9.968;2023-04-25T03:09:33;20.00;73.60
28071;DHT22;15383;48.408;9.968;2023-04-25T03:11:59;20.00;73.60
28071;DHT22;15383;48.408;9.968;2023-04-25T03:14:24;20.00;73.60
28071;DHT22;15383;48.408;9.968;2023-04-25T03:16:50;20.00;73.60
28071;DHT22;15383;48.408;9.968;2023-04-25T03:19:15;20.00;73.60
28071;DHT22;15383;48.408;9.968;2023-04-25T03:21:42;20.00;73.70
28071;DHT22;15383;48.408;9.968;2023-04-25T03:24:08;20.00;73.60
28071;DHT22;15383;48.408;9.968;2023-04-25T03:26:34;20.00;73.60
28071;DHT22;15383;48.408;9.968;2023-04-25T03:28:59;20.00;73.60
28071;DHT22;15383;48.408;9.968;2023-04-25T03:31:25;20.00;73.70
28071;DHT22;15383;48.408;9.968;2023-04-25T03:33:50;20.00;73.70
28071;DHT22;15383;48.408;9.968;2023-04-25T03:36:16;20.00;73.60
28071;DHT22;15383;48.408;9.968;2023-04-25T03:38:41;20.00;73.70
28071;DHT22;15383;48.408;9.968;2023-04-25T03:41:07;20.00;73.70
28071;DHT22;15383;48.408;9.968;2023-04-25T03:43:33;20.00;73.70
28071;DHT22;15383;48.408;9.968;2023-04-25T03:45:59;20.00;73.70
28071;DHT22;15383;48.408;9.968;2023-04-25T03:48:26;20.00;73.70
28071;DHT22;15383;48.408;9.968;2023-04-25T03:50:52;20.10;73.90
28071;DHT22;15383;48.408;9.968;2023-04-25T03:53:18;20.10;73.90
28071;DHT22;15383;48.408;9.968;2023-04-25T03:55:43;20.10;73.90
28071;DHT22;15383;48.408;9.968;2023-04-25T03:58:09;20.10;73.90
28071;DHT22;15383;48.408;9.968;2023-04-25T04:00:35;20.10;74.00
28071;DHT22;15383;48.408;9.968;2023-04-25T04:03:01;20.20;74.00
28071;DHT22;15383;48.408;9.968;2023-04-25T04:05:26;20.10;74.00
28071;DHT22;15383;48.408;9.968;2023-04-25T04:07:52;20.20;74.10
28071;DHT22;15383;48.408;9.968;2023-04-25T04:10:18;20.20;74.10
28071;DHT22;15383;48.408;9.968;2023-04-25T04:12:44;20.20;74.20
28071;DHT22;15383;48.408;9.968;2023-04-25T04:15:10;20.30;74.20
28071;DHT22;15383;48.408;9.968;2023-04-25T04:17:36;20.20;74.10
28071;DHT22;15383;48.408;9.968;2023-04-25T04:20:01;20.30;74.20
28071;DHT22;15383;48.408;9.968;2023-04-25T04:22:29;20.30;74.60
28071;DHT22;15383;48.408;9.968;2023-04-25T04:24:54;20.30;74.80
28071;DHT22;15383;48.408;9.968;2023-04-25T04:27:22;20.40;74.80
28071;DHT22;15383;48.408;9.968;2023-04-25T04:29:48;20.40;74.70
28071;DHT22;15383;48.408;9.968;2023-04-25T04:32:15;20.40;74.60
28071;DHT22;15383;48.408;9.968;2023-04-25T04:34:41;20.40;74.60
28071;DHT22;15383;48.408;9.968;2023-04-25T04:37:07;20.40;74.50
28071;DHT22;15383;48.408;9.968;2023-04-25T04:39:36;20.40;74.40
28071;DHT22;15383;48.408;9.968;2023-04-25T04:42:02;20.40;74.40
28071;DHT22;15383;48.408;9.968;2023-04-25T04:44:29;20.50;74.40
28071;DHT22;15383;48.408;9.968;2023-04-25T04:46:54;20.50;74.30
28071;DHT22;15383;48.408;9.968;2023-04-25T04:49:21;20.50;74.30
28071;DHT22;15383;48.408;9.968;2023-04-25T04:51:46;20.50;74.20
28071;DHT22;15383;48.408;9.968;2023-04-25T04:54:13;20.50;74.20
28071;DHT22;15383;48.408;9.968;2023-04-25T04:56:38;20.50;74.10
28071;DHT22;15383;48.408;9.968;2023-04-25T04:59:04;20.50;74.10
28071;DHT22;15383;48.408;9.968;2023-04-25T05:01:30;20.50;74.00
28071;DHT22;15383;48.408;9.968;2023-04-25T05:03:56;20.60;74.80
28071;DHT22;15383;48.408;9.968;2023-04-25T05:06:28;20.60;74.00
28071;DHT22;15383;48.408;9.968;2023-04-25T05:08:55;20.60;74.00
28071;DHT22;15383;48.408;9.968;2023-04-25T05:11:21;20.60;73.90
28071;DHT22;15383;48.408;9.968;2023-04-25T05:13:47;20.60;74.00
28071;DHT22;15383;48.408;9.968;2023-04-25T05:16:13;20.60;74.30
28071;DHT22;15383;48.408;9.968;2023-04-25T05:18:39;20.70;74.00
28071;DHT22;15383;48.408;9.968;2023-04-25T05:21:05;20.70;73.90
28071;DHT22;15383;48.408;9.968;2023-04-25T05:23:32;20.80;74.20
28071;DHT22;15383;48.408;9.968;2023-04-25T05:25:58;20.90;74.10
28071;DHT22;15383;48.408;9.968;2023-04-25T05:28:23;20.90;73.70
28071;DHT22;15383;48.408;9.968;2023-04-25T05:30:49;21.00;73.60
28071;DHT22;15383;48.408;9.968;2023-04-25T05:33:15;21.00;73.40
28071;DHT22;15383;48.408;9.968;2023-04-25T05:35:41;21.10;73.60
28071;DHT22;15383;48.408;9.968;2023-04-25T05:38:06;21.10;73.60
28071;DHT22;15383;48.408;9.968;2023-04-25T05:40:32;21.20;75.20
28071;DHT22;15383;48.408;9.968;2023-04-25T05:42:57;21.20;73.30
28071;DHT22;15383;48.408;9.968;2023-04-25T05:45:23;21.30;73.00
28071;DHT22;15383;48.408;9.968;2023-04-25T05:47:48;21.40;72.80
28071;DHT22;15383;48.408;9.968;2023-04-25T05:50:14;21.40;72.60
28071;DHT22;15383;48.408;9.968;2023-04-25T05:52:40;21.40;72.30
28071;DHT22;15383;48.408;9.968;2023-04-25T05:55:05;21.40;72.10
28071;DHT22;15383;48.408;9.968;2023-04-25T05:57:31;21.40;72.10
28071;DHT22;15383;48.408;9.968;2023-04-25T05:59:57;21.40;72.00
28071;DHT22;15383;48.408;9.968;2023-04-25T06:02:22;21.40;72.00
28071;DHT22;15383;48.408;9.968;2023-04-25T06:04:49;21.50;72.00
28071;DHT22;15383;48.408;9.968;2023-04-25T06:07:15;21.50;71.80
28071;DHT22;15383;48.408;9.968;2023-04-25T06:09:41;21.50;71.80
28071;DHT22;15383;48.408;9.968;2023-04-25T06:12:06;21.50;71.80
28071;DHT22;15383;48.408;9.968;2023-04-25T06:14:33;21.50;72.40
28071;DHT22;15383;48.408;9.968;2023-04-25T06:16:59;21.60;71.70
28071;DHT22;15383;48.408;9.968;2023-04-25T06:19:25;21.60;71.60
28071;DHT22;15383;48.408;9.968;2023-04-25T06:21:50;21.70;71.50
28071;DHT22;15383;48.408;9.968;2023-04-25T06:24:16;21.70;71.10
28071;DHT22;15383;48.408;9.968;2023-04-25T06:26:41;21.80;70.90
28071;DHT22;15383;48.408;9.968;2023-04-25T06:29:07;21.80;70.80
28071;DHT22;15383;48.408;9.968;2023-04-25T06:31:32;21.90;70.70
28071;DHT22;15383;48.408;9.968;2023-04-25T06:33:59;21.90;70.50
28071;DHT22;15383;48.408;9.968;2023-04-25T06:36:24;21.90;70.60
28071;DHT22;15383;48.408;9.968;2023-04-25T06:38:53;22.00;70.40
28071;DHT22;15383;48.408;9.968;2023-04-25T06:41:19;22.00;70.30
28071;DHT22;15383;48.408;9.968;2023-04-25T06:43:45;22.00;70.60
28071;DHT22;15383;48.408;9.968;2023-04-25T06:46:11;22.00;70.40
28071;DHT22;15383;48.408;9.968;2023-04-25T06:48:36;22.00;70.40
28071;DHT22;15383;48.408;9.968;2023-04-25T06:51:02;22.00;70.40
28071;DHT22;15383;48.408;9.968;2023-04-25T06:53:28;22.10;70.50
28071;DHT22;15383;48.408;9.968;2023-04-25T06:55:54;22.10;70.20
28071;DHT22;15383;48.408;9.968;2023-04-25T06:58:20;22.20;70.20
28071;DHT22;15383;48.408;9.968;2023-04-25T07:00:45;22.20;70.30
28071;DHT22;15383;48.408;9.968;2023-04-25T07:03:11;22.20;70.30
28071;DHT22;15383;48.408;9.968;2023-04-25T07:05:37;22.20;70.00
28071;DHT22;15383;48.408;9.968;2023-04-25T07:08:02;22.20;69.90
28071;DHT22;15383;48.408;9.968;2023-04-25T07:10:28;22.20;70.00
28071;DHT22;15383;48.408;9.968;2023-04-25T07:12:54;22.10;69.90
28071;DHT22;15383;48.408;9.968;2023-04-25T07:15:19;22.10;70.10
28071;DHT22;15383;48.408;9.968;2023-04-25T07:17:45;22.10;70.10
28071;DHT22;15383;48.408;9.968;2023-04-25T07:20:11;22.10;70.20
28071;DHT22;15383;48.408;9.968;2023-04-25T07:22:37;22.00;70.20
28071;DHT22;15383;48.408;9.968;2023-04-25T07:25:02;22.00;70.10
28071;DHT22;15383;48.408;9.968;2023-04-25T07:27:29;22.00;70.00
28071;DHT22;15383;48.408;9.968;2023-04-25T07:29:55;22.00;70.00
28071;DHT22;15383;48.408;9.968;2023-04-25T07:32:21;22.00;69.90
28071;DHT22;15383;48.408;9.968;2023-04-25T07:34:46;22.00;69.40
28071;DHT22;15383;48.408;9.968;2023-04-25T07:37:12;22.00;66.00
28071;DHT22;15383;48.408;9.968;2023-04-25T07:39:39;22.00;66.10
28071;DHT22;15383;48.408;9.968;2023-04-25T07:42:04;21.90;66.40
28071;DHT22;15383;48.408;9.968;2023-04-25T07:44:33;22.00;66.70
28071;DHT22;15383;48.408;9.968;2023-04-25T07:47:07;22.00;67.00
28071;DHT22;15383;48.408;9.968;2023-04-25T07:49:33;22.00;67.50
28071;DHT22;15383;48.408;9.968;2023-04-25T07:52:00;21.90;67.50
28071;DHT22;15383;48.408;9.968;2023-04-25T07:54:26;22.00;67.70
28071;DHT22;15383;48.408;9.968;2023-04-25T07:56:51;22.00;67.80
28071;DHT22;15383;48.408;9.968;2023-04-25T07:59:17;22.00;67.80
28071;DHT22;15383;48.408;9.968;2023-04-25T08:01:42;22.00;67.90
28071;DHT22;15383;48.408;9.968;2023-04-25T08:04:08;22.00;68.00
28071;DHT22;15383;48.408;9.968;2023-04-25T08:06:33;22.00;67.90
28071;DHT22;15383;48.408;9.968;2023-04-25T08:08:59;22.00;68.10
28071;DHT22;15383;48.408;9.968;2023-04-25T08:11:25;22.00;68.20
28071;DHT22;15383;48.408;9.968;2023-04-25T08:13:50;22.00;68.20
28071;DHT22;15383;48.408;9.968;2023-04-25T08:16:16;22.00;68.20
28071;DHT22;15383;48.408;9.968;2023-04-25T08:18:41;22.00;68.30
28071;DHT22;15383;48.408;9.968;2023-04-25T08:21:07;22.00;68.30
28071;DHT22;15383;48.408;9.968;2023-04-25T08:23:34;22.00;68.50
28071;DHT22;15383;48.408;9.968;2023-04-25T08:25:59;22.00;68.60
28071;DHT22;15383;48.408;9.968;2023-04-25T08:28:25;22.00;68.50
28071;DHT22;15383;48.408;9.968;2023-04-25T08:30:51;22.00;68.50
28071;DHT22;15383;48.408;9.968;2023-04-25T08:33:16;22.10;68.50
28071;DHT22;15383;48.408;9.968;2023-04-25T08:35:42;22.10;68.50
28071;DHT22;15383;48.408;9.968;2023-04-25T08:38:08;22.10;68.40
28071;DHT22;15383;48.408;9.968;2023-04-25T08:40:38;22.10;68.30
28071;DHT22;15383;48.408;9.968;2023-04-25T08:43:04;22.00;68.30
28071;DHT22;15383;48.408;9.968;2023-04-25T08:45:35;22.10;68.10
28071;DHT22;15383;48.408;9.968;2023-04-25T08:48:02;22.10;67.80
28071;DHT22;15383;48.408;9.968;2023-04-25T08:50:29;22.10;68.30
28071;DHT22;15383;48.408;9.968;2023-04-25T08:52:59;22.10;68.30
28071;DHT22;15383;48.408;9.968;2023-04-25T08:55:28;22.10;68.60
28071;DHT22;15383;48.408;9.968;2023-04-25T08:57:54;22.10;68.10
28071;DHT22;15383;48.408;9.968;2023-04-25T09:00:22;22.00;67.90
28071;DHT22;15383;48.408;9.968;2023-04-25T09:02:48;21.90;68.20
28071;DHT22;15383;48.408;9.968;2023-04-25T09:05:14;21.80;68.40
28071;DHT22;15383;48.408;9.968;2023-04-25T09:07:40;21.80;68.60
28071;DHT22;15383;48.408;9.968;2023-04-25T09:10:05;21.70;69.20
28071;DHT22;15383;48.408;9.968;2023-04-25T09:12:31;21.70;70.00
28071;DHT22;15383;48.408;9.968;2023-04-25T09:15:11;21.70;70.10
28071;DHT22;15383;48.408;9.968;2023-04-25T09:17:37;21.70;70.30
28071;DHT22;15383;48.408;9.968;2023-04-25T09:20:14;21.60;70.20
28071;DHT22;15383;48.408;9.968;2023-04-25T09:22:40;21.60;70.20
28071;DHT22;15383;48.408;9.968;2023-04-25T09:25:10;21.60;70.30
28071;DHT22;15383;48.408;9.968;2023-04-25T09:27:35;21.50;71.10
28071;DHT22;15383;48.408;9.968;2023-04-25T09:30:02;21.50;70.30
28071;DHT22;15383;48.408;9.968;2023-04-25T09:32:27;21.50;70.30
28071;DHT22;15383;48.408;9.968;2023-04-25T09:34:56;21.50;70.40
28071;DHT22;15383;48.408;9.968;2023-04-25T09:37:23;21.50;70.20
28071;DHT22;15383;48.408;9.968;2023-04-25T09:39:52;21.40;70.10
28071;DHT22;15383;48.408;9.968;2023-04-25T09:42:17;21.40;70.10
28071;DHT22;15383;48.408;9.968;2023-04-25T09:44:45;21.40;70.10
28071;DHT22;15383;48.408;9.968;2023-04-25T09:47:12;21.40;70.10
28071;DHT22;15383;48.408;9.968;2023-04-25T09:49:42;21.40;70.10
28071;DHT22;15383;48.408;9.968;2023-04-25T09:52:18;21.40;70.20
28071;DHT22;15383;48.408;9.968;2023-04-25T09:54:45;21.40;70.30
28071;DHT22;15383;48.408;9.968;2023-04-25T09:59:51;21.30;70.10
28071;DHT22;15383;48.408;9.968;2023-04-25T10:02:25;21.40;70.30
28071;DHT22;15383;48.408;9.968;2023-04-25T10:04:54;21.30;70.10
28071;DHT22;15383;48.408;9.968;2023-04-25T10:07:22;21.30;70.10
28071;DHT22;15383;48.408;9.968;2023-04-25T10:09:59;21.30;70.00
28071;DHT22;15383;48.408;9.968;2023-04-25T10:12:29;21.30;70.00
28071;DHT22;15383;48.408;9.968;2023-04-25T10:14:55;21.30;69.90
28071;DHT22;15383;48.408;9.968;2023-04-25T10:17:20;21.30;69.80
28071;DHT22;15383;48.408;9.968;2023-04-25T10:19:47;21.30;69.80
28071;DHT22;15383;48.408;9.968;2023-04-25T10:22:23;21.30;69.70
28071;DHT22;15383;48.408;9.968;2023-04-25T10:24:52;21.30;69.80
28071;DHT22;15383;48.408;9.968;2023-04-25T10:27:18;21.30;69.70
28071;DHT22;15383;48.408;9.968;2023-04-25T10:29:44;21.30;69.70
28071;DHT22;15383;48.408;9.968;2023-04-25T10:32:09;21.30;69.70
28071;DHT22;15383;48.408;9.968;2023-04-25T10:34:43;21.30;69.70
28071;DHT22;15383;48.408;9.968;2023-04-25T10:37:12;21.30;69.80
28071;DHT22;15383;48.408;9.968;2023-04-25T10:39:39;21.30;70.00
28071;DHT22;15383;48.408;9.968;2023-04-25T10:42:05;21.30;70.00
28071;DHT22;15383;48.408;9.968;2023-04-25T10:44:33;21.20;69.90
28071;DHT22;15383;48.408;9.968;2023-04-25T10:47:00;21.20;69.90
28071;DHT22;15383;48.408;9.968;2023-04-25T10:49:30;21.20;70.10
28071;DHT22;15383;48.408;9.968;2023-04-25T10:52:12;21.30;70.90
28071;DHT22;15383;48.408;9.968;2023-04-25T10:54:47;21.30;71.60
28071;DHT22;15383;48.408;9.968;2023-04-25T11:02:43;21.30;71.30
28071;DHT22;15383;48.408;9.968;2023-04-25T11:05:14;21.30;71.30
28071;DHT22;15383;48.408;9.968;2023-04-25T11:07:48;21.20;71.10
28071;DHT22;15383;48.408;9.968;2023-04-25T11:10:15;21.30;71.00
28071;DHT22;15383;48.408;9.968;2023-04-25T11:12:41;21.20;70.90
28071;DHT22;15383;48.408;9.968;2023-04-25T11:15:07;21.20;70.90
28071;DHT22;15383;48.408;9.968;2023-04-25T11:17:33;21.20;70.80
28071;DHT22;15383;48.408;9.968;2023-04-25T11:20:00;21.20;70.80
28071;DHT22;15383;48.408;9.968;2023-04-25T11:22:27;21.20;70.90
28071;DHT22;15383;48.408;9.968;2023-04-25T11:24:53;21.20;70.80
28071;DHT22;15383;48.408;9.968;2023-04-25T11:27:18;21.20;70.80
28071;DHT22;15383;48.408;9.968;2023-04-25T11:29:44;21.10;70.80
28071;DHT22;15383;48.408;9.968;2023-04-25T11:32:10;21.10;70.70
28071;DHT22;15383;48.408;9.968;2023-04-25T11:34:35;21.10;70.80
28071;DHT22;15383;48.408;9.968;2023-04-25T11:37:02;21.10;70.90
28071;DHT22;15383;48.408;9.968;2023-04-25T11:39:28;21.10;71.00
28071;DHT22;15383;48.408;9.968;2023-04-25T11:41:54;21.10;71.20
28071;DHT22;15383;48.408;9.968;2023-04-25T11:44:21;21.10;71.40
28071;DHT22;15383;48.408;9.968;2023-04-25T11:46:47;21.10;71.30
28071;DHT22;15383;48.408;9.968;2023-04-25T11:49:16;21.10;71.20
28071;DHT22;15383;48.408;9.968;2023-04-25T11:51:46;21.10;71.10
28071;DHT22;15383;48.408;9.968;2023-04-25T11:54:12;21.20;71.10
28071;DHT22;15383;48.408;9.968;2023-04-25T11:56:44;21.10;71.00
28071;DHT22;15383;48.408;9.968;2023-04-25T11:59:10;21.20;71.00
28071;DHT22;15383;48.408;9.968;2023-04-25T12:01:38;21.20;70.90
28071;DHT22;15383;48.408;9.968;2023-04-25T12:04:21;21.10;70.80
28071;DHT22;15383;48.408;9.968;2023-04-25T12:06:49;21.20;70.80
28071;DHT22;15383;48.408;9.968;2023-04-25T12:09:17;21.20;70.80
28071;DHT22;15383;48.408;9.968;2023-04-25T12:11:57;21.20;71.10
28071;DHT22;15383;48.408;9.968;2023-04-25T12:14:27;21.20;71.20
28071;DHT22;15383;48.408;9.968;2023-04-25T12:16:56;21.20;71.80
28071;DHT22;15383;48.408;9.968;2023-04-25T12:19:23;21.20;71.10
28071;DHT22;15383;48.408;9.968;2023-04-25T12:21:50;21.10;71.00
28071;DHT22;15383;48.408;9.968;2023-04-25T12:24:17;21.10;71.00
28071;DHT22;15383;48.408;9.968;2023-04-25T12:26:48;21.20;71.10
28071;DHT22;15383;48.408;9.968;2023-04-25T12:29:21;21.20;71.00
28071;DHT22;15383;48.408;9.968;2023-04-25T12:31:47;21.10;70.90
28071;DHT22;15383;48.408;9.968;2023-04-25T12:34:13;21.20;70.90
28071;DHT22;15383;48.408;9.968;2023-04-25T12:36:39;21.20;71.00
28071;DHT22;15383;48.408;9.968;2023-04-25T12:39:05;21.20;70.90
28071;DHT22;15383;48.408;9.968;2023-04-25T12:41:32;21.20;70.80
28071;DHT22;15383;48.408;9.968;2023-04-25T12:43:57;21.20;70.80
28071;DHT22;15383;48.408;9.968;2023-04-25T12:46:23;21.20;70.70
28071;DHT22;15383;48.408;9.968;2023-04-25T12:48:49;21.20;70.80
28071;DHT22;15383;48.408;9.968;2023-04-25T12:51:14;21.10;70.80
28071;DHT22;15383;48.408;9.968;2023-04-25T12:53:41;21.20;70.80
28071;DHT22;15383;48.408;9.968;2023-04-25T12:56:07;21.20;70.80
28071;DHT22;15383;48.408;9.968;2023-04-25T12:58:33;21.20;70.80
28071;DHT22;15383;48.408;9.968;2023-04-25T13:00:59;21.20;70.70
28071;DHT22;15383;48.408;9.968;2023-04-25T13:03:25;21.20;70.70
28071;DHT22;15383;48.408;9.968;2023-04-25T13:05:51;21.20;70.70
28071;DHT22;15383;48.408;9.968;2023-04-25T13:08:18;21.20;70.70
28071;DHT22;15383;48.408;9.968;2023-04-25T13:10:44;21.20;70.70
28071;DHT22;15383;48.408;9.968;2023-04-25T13:13:09;21.20;70.70
28071;DHT22;15383;48.408;9.968;2023-04-25T13:15:35;21.20;71.10
28071;DHT22;15383;48.408;9.968;2023-04-25T13:18:00;21.20;71.60
28071;DHT22;15383;48.408;9.968;2023-04-25T13:20:26;21.20;71.80
28071;DHT22;15383;48.408;9.968;2023-04-25T13:22:52;21.20;72.50
28071;DHT22;15383;48.408;9.968;2023-04-25T13:25:17;21.20;72.60
28071;DHT22;15383;48.408;9.968;2023-04-25T13:27:44;21.20;72.60
28071;DHT22;15383;48.408;9.968;2023-04-25T13:30:10;21.20;73.30
28071;DHT22;15383;48.408;9.968;2023-04-25T13:32:37;21.20;73.20
28071;DHT22;15383;48.408;9.968;2023-04-25T13:35:08;21.20;73.50
28071;DHT22;15383;48.408;9.968;2023-04-25T13:37:35;21.20;73.60
28071;DHT22;15383;48.408;9.968;2023-04-25T13:40:01;21.20;73.60
28071;DHT22;15383;48.408;9.968;2023-04-25T13:42:29;21.20;73.60
28071;DHT22;15383;48.408;9.968;2023-04-25T13:44:54;21.20;73.70
28071;DHT22;15383;48.408;9.968;2023-04-25T13:47:20;21.20;73.60
28071;DHT22;15383;48.408;9.968;2023-04-25T13:49:45;21.20;73.60
28071;DHT22;15383;48.408;9.968;2023-04-25T13:52:11;21.20;73.70
28071;DHT22;15383;48.408;9.968;2023-04-25T13:54:36;21.20;73.70
28071;DHT22;15383;48.408;9.968;2023-04-25T13:57:02;21.10;73.70
28071;DHT22;15383;48.408;9.968;2023-04-25T13:59:28;21.20;73.80
28071;DHT22;15383;48.408;9.968;2023-04-25T14:01:53;21.10;73.80
28071;DHT22;15383;48.408;9.968;2023-04-25T14:04:19;21.10;73.90
28071;DHT22;15383;48.408;9.968;2023-04-25T14:06:44;21.10;73.90
28071;DHT22;15383;48.408;9.968;2023-04-25T14:09:11;21.10;73.90
28071;DHT22;15383;48.408;9.968;2023-04-25T14:11:37;21.10;73.80
28071;DHT22;15383;48.408;9.968;2023-04-25T14:14:03;21.10;73.80
28071;DHT22;15383;48.408;9.968;2023-04-25T14:16:30;21.10;73.90
28071;DHT22;15383;48.408;9.968;2023-04-25T14:18:57;21.20;73.90
28071;DHT22;15383;48.408;9.968;2023-04-25T14:21:23;21.10;73.90
28071;DHT22;15383;48.408;9.968;2023-04-25T14:23:48;21.20;74.00
28071;DHT22;15383;48.408;9.968;2023-04-25T14:26:14;21.10;74.00
28071;DHT22;15383;48.408;9.968;2023-04-25T14:28:39;21.20;74.00
28071;DHT22;15383;48.408;9.968;2023-04-25T14:31:05;21.20;74.00
28071;DHT22;15383;48.408;9.968;2023-04-25T14:33:31;21.20;74.10
28071;DHT22;15383;48.408;9.968;2023-04-25T14:35:57;21.20;74.20
28071;DHT22;15383;48.408;9.968;2023-04-25T14:38:22;21.20;74.30
28071;DHT22;15383;48.408;9.968;2023-04-25T14:40:50;21.20;74.10
28071;DHT22;15383;48.408;9.968;2023-04-25T14:43:15;21.20;73.90
28071;DHT22;15383;48.408;9.968;2023-04-25T14:45:41;21.20;73.60
28071;DHT22;15383;48.408;9.968;2023-04-25T14:48:06;21.30;73.20
28071;DHT22;15383;48.408;9.968;2023-04-25T14:50:32;21.20;72.80
28071;DHT22;15383;48.408;9.968;2023-04-25T14:52:58;21.30;72.70
28071;DHT22;15383;48.408;9.968;2023-04-25T14:55:24;21.30;72.60
28071;DHT22;15383;48.408;9.968;2023-04-25T14:57:50;21.30;72.40
28071;DHT22;15383;48.408;9.968;2023-04-25T15:00:16;21.30;71.90
28071;DHT22;15383;48.408;9.968;2023-04-25T15:02:42;21.30;71.90
28071;DHT22;15383;48.408;9.968;2023-04-25T15:05:07;21.30;71.60
28071;DHT22;15383;48.408;9.968;2023-04-25T15:07:36;21.30;71.60
28071;DHT22;15383;48.408;9.968;2023-04-25T15:10:03;21.30;71.40
28071;DHT22;15383;48.408;9.968;2023-04-25T15:12:28;21.30;71.30
28071;DHT22;15383;48.408;9.968;2023-04-25T15:14:54;21.30;71.60
28071;DHT22;15383;48.408;9.968;2023-04-25T15:17:19;21.30;71.50
28071;DHT22;15383;48.408;9.968;2023-04-25T15:19:45;21.30;71.70
28071;DHT22;15383;48.408;9.968;2023-04-25T15:22:11;21.30;71.40
28071;DHT22;15383;48.408;9.968;2023-04-25T15:24:36;21.30;70.80
28071;DHT22;15383;48.408;9.968;2023-04-25T15:27:02;21.30;70.00
28071;DHT22;15383;48.408;9.968;2023-04-25T15:29:28;21.30;69.40
28071;DHT22;15383;48.408;9.968;2023-04-25T15:31:54;21.30;69.20
28071;DHT22;15383;48.408;9.968;2023-04-25T15:34:19;21.30;69.00